Time;durP1;ratioP1;P1;durP2;ratioP2;P2;SDS_P1;SDS_P2;PMS_P1;PMS_P2;Temp;Humidity;BMP_temperature;BMP_pressure;BME280_temperature;BME280_humidity;BME280_pressure;Samples;Min_cycle;Max_cycle;Signal;HPM_P1;HPM_P2
2023/10/02 00:05:07;;;;;;;10.20;4.22;;;16.10;99.90;;;;;;4970273;28;20755;-61
2023/10/02 00:07:36;;;;;;;15.50;4.47;;;16.10;99.90;;;;;;4969887;28;20100;-61
2023/10/02 00:10:04;;;;;;;15.00;4.72;;;16.20;99.90;;;;;;4969448;28;20047;-61
2023/10/02 00:12:31;;;;;;;11.13;4.63;;;16.20;99.90;;;;;;4970150;28;20478;-61
2023/10/02 00:14:58;;;;;;;11.68;4.20;;;16.30;99.90;;;;;;4969635;28;20097;-61
2023/10/02 00:17:24;;;;;;;13.30;5.10;;;16.40;99.90;;;;;;4969327;28;20042;-61
2023/10/02 00:19:59;;;;;;;12.30;4.47;;;16.40;99.90;;;;;;4952881;28;20050;-61
2023/10/02 00:22:35;;;;;;;17.92;4.65;;;16.40;99.90;;;;;;4968658;28;20087;-61
2023/10/02 00:25:19;;;;;;;12.10;3.90;;;16.50;99.90;;;;;;4968776;28;20051;-61
2023/10/02 00:27:50;;;;;;;14.85;4.45;;;16.50;99.90;;;;;;4970143;28;20047;-61
2023/10/02 00:30:17;;;;;;;16.02;5.55;;;16.50;99.90;;;;;;4968977;28;20046;-61
2023/10/02 00:32:45;;;;;;;13.38;4.57;;;16.50;99.90;;;;;;4987377;28;20046;-61
2023/10/02 00:35:12;;;;;;;8.52;3.72;;;16.60;99.90;;;;;;4980069;28;20070;-60
2023/10/02 00:37:51;;;;;;;12.95;4.32;;;16.60;99.90;;;;;;4969915;28;20039;-61
2023/10/02 00:40:26;;;;;;;9.85;4.68;;;16.60;99.90;;;;;;4968724;28;20133;-61
2023/10/02 00:45:49;;;;;;;17.30;5.28;;;16.70;99.90;;;;;;4969793;28;20058;-61
2023/10/02 00:48:25;;;;;;;13.05;4.32;;;16.70;99.90;;;;;;4968687;28;20384;-61
2023/10/02 00:50:55;;;;;;;12.48;4.97;;;16.70;99.90;;;;;;4967940;28;20051;-61
2023/10/02 00:53:37;;;;;;;17.80;4.93;;;16.70;99.90;;;;;;4969505;28;20046;-61
2023/10/02 00:56:22;;;;;;;10.48;4.80;;;16.80;99.90;;;;;;4967732;28;20078;-61
2023/10/02 00:59:15;;;;;;;13.52;4.80;;;16.80;99.90;;;;;;4969876;28;20038;-62
2023/10/02 01:01:35;;;;;;;15.00;5.40;;;16.70;99.90;;;;;;4968173;28;20124;-62
2023/10/02 01:04:24;;;;;;;10.05;3.88;;;16.70;99.90;;;;;;4968856;28;20038;-61
2023/10/02 01:06:55;;;;;;;10.93;4.30;;;16.60;99.90;;;;;;4968111;28;20058;-61
2023/10/02 01:09:25;;;;;;;10.13;4.57;;;16.60;99.90;;;;;;4968331;28;20047;-62
2023/10/02 01:11:52;;;;;;;13.07;4.90;;;16.60;99.90;;;;;;4967129;28;20487;-61
2023/10/02 01:14:40;;;;;;;13.63;5.50;;;16.50;99.90;;;;;;4967690;28;20108;-61
2023/10/02 01:17:07;;;;;;;10.95;5.97;;;16.50;99.90;;;;;;4967421;28;20059;-60
2023/10/02 01:19:52;;;;;;;16.50;4.53;;;16.50;99.90;;;;;;4969349;28;20467;-61
2023/10/02 01:22:28;;;;;;;17.65;5.35;;;16.50;99.90;;;;;;4968154;28;20045;-61
2023/10/02 01:25:12;;;;;;;19.83;5.90;;;16.50;99.90;;;;;;4967530;28;20077;-61
2023/10/02 01:27:42;;;;;;;12.68;4.82;;;16.50;99.90;;;;;;4976361;28;20042;-61
2023/10/02 01:30:18;;;;;;;;;;;16.40;99.90;;;;;;4987034;28;20104;-61
2023/10/02 01:33:14;;;;;;;13.05;4.50;;;16.40;99.90;;;;;;4948358;28;19994;-61
2023/10/02 01:35:50;;;;;;;16.10;4.88;;;16.40;99.90;;;;;;4948558;29;20055;-61
2023/10/02 01:38:24;;;;;;;13.27;5.00;;;16.30;99.90;;;;;;4948110;29;20051;-61
2023/10/02 01:40:54;;;;;;;10.23;4.30;;;16.30;99.90;;;;;;4949697;28;20157;-61
2023/10/02 01:43:27;;;;;;;18.42;5.65;;;16.30;99.90;;;;;;4949442;28;20085;-61
2023/10/02 01:46:00;;;;;;;12.63;5.20;;;16.30;99.90;;;;;;4948962;28;20387;-61
2023/10/02 01:48:36;;;;;;;14.25;5.07;;;16.30;99.90;;;;;;4948243;29;20043;-61
2023/10/02 01:51:27;;;;;;;19.58;5.00;;;16.20;99.90;;;;;;4948388;29;20043;-61
2023/10/02 01:53:55;;;;;;;17.48;5.28;;;16.30;99.90;;;;;;4948789;28;20128;-61
2023/10/02 01:56:27;;;;;;;14.80;5.68;;;16.30;99.90;;;;;;4948451;29;20045;-61
2023/10/02 01:58:54;;;;;;;11.40;4.70;;;16.30;99.90;;;;;;4947244;29;20062;-62
2023/10/02 02:01:21;;;;;;;16.02;5.80;;;16.30;99.90;;;;;;4949602;28;20410;-61
2023/10/02 02:03:50;;;;;;;16.42;5.55;;;16.30;99.90;;;;;;4948461;29;20051;-61
2023/10/02 02:06:23;;;;;;;15.55;4.90;;;16.30;99.90;;;;;;4932038;29;20101;-61
2023/10/02 02:08:58;;;;;;;16.73;6.07;;;16.30;99.90;;;;;;4948447;29;20059;-61
2023/10/02 02:11:26;;;;;;;15.15;5.88;;;16.40;99.90;;;;;;4948241;29;20031;-61
2023/10/02 02:13:58;;;;;;;14.80;4.75;;;16.40;99.90;;;;;;4947345;29;20106;-61
2023/10/02 02:16:33;;;;;;;14.30;4.30;;;16.40;99.90;;;;;;4948635;28;20047;-61
2023/10/02 02:19:05;;;;;;;14.05;5.43;;;16.50;99.90;;;;;;4949396;28;20035;-61
2023/10/02 02:21:32;;;;;;;16.38;5.22;;;16.50;99.90;;;;;;4948740;28;20372;-61
2023/10/02 02:24:07;;;;;;;14.25;4.82;;;16.50;99.90;;;;;;4947894;29;20047;-61
2023/10/02 02:26:36;;;;;;;14.05;4.35;;;16.50;99.90;;;;;;4948024;29;20047;-62
2023/10/02 02:29:02;;;;;;;13.57;5.10;;;16.50;99.90;;;;;;4931664;29;20062;-61
2023/10/02 02:31:29;;;;;;;11.27;5.35;;;16.50;99.90;;;;;;4947908;29;20047;-62
2023/10/02 02:34:03;;;;;;;17.88;6.88;;;16.50;99.90;;;;;;4948655;28;20120;-61
2023/10/02 02:36:41;;;;;;;12.65;4.97;;;16.60;99.90;;;;;;4949152;28;20058;-61
2023/10/02 02:39:20;;;;;;;14.65;5.68;;;16.60;99.90;;;;;;4947890;29;20047;-61
2023/10/02 02:42:09;;;;;;;15.13;4.93;;;16.60;99.90;;;;;;4947010;29;20059;-61
2023/10/02 02:44:46;;;;;;;9.00;5.10;;;16.60;99.90;;;;;;4949067;28;20491;-61
2023/10/02 02:47:21;;;;;;;13.82;4.63;;;16.60;99.90;;;;;;4949118;28;20061;-61
2023/10/02 02:49:53;;;;;;;13.82;5.53;;;16.60;99.90;;;;;;4948385;29;20073;-61
2023/10/02 02:52:21;;;;;;;15.18;5.05;;;16.60;99.90;;;;;;4947976;29;20074;-61
2023/10/02 02:54:48;;;;;;;13.20;5.10;;;16.70;99.90;;;;;;4947668;29;20047;-61
2023/10/02 02:57:15;;;;;;;15.45;5.60;;;16.70;99.90;;;;;;4947925;29;20104;-62
2023/10/02 02:59:41;;;;;;;12.73;4.72;;;16.70;99.90;;;;;;4947713;29;20046;-61
2023/10/02 03:02:10;;;;;;;9.95;4.63;;;16.70;99.90;;;;;;4931192;28;20047;-62
2023/10/02 03:04:38;;;;;;;11.07;4.60;;;16.70;99.90;;;;;;4947387;29;20063;-61
2023/10/02 03:07:09;;;;;;;11.48;4.97;;;16.80;99.90;;;;;;4947428;29;20056;-61
2023/10/02 03:09:38;;;;;;;12.90;5.07;;;16.80;99.90;;;;;;4947115;29;20407;-61
2023/10/02 03:12:05;;;;;;;11.77;4.47;;;16.80;99.90;;;;;;4950631;29;20047;-63
2023/10/02 03:14:33;;;;;;;12.80;4.70;;;16.80;99.90;;;;;;4934915;29;20050;-61
2023/10/02 03:17:22;;;;;;;15.15;5.10;;;16.80;99.90;;;;;;4949765;29;20079;-61
2023/10/02 03:19:45;;;;;;;18.52;5.35;;;16.80;99.90;;;;;;4950999;28;20051;-61
2023/10/02 03:22:11;;;;;;;12.80;5.22;;;16.80;99.90;;;;;;4951828;28;20130;-61
2023/10/02 03:24:39;;;;;;;15.73;4.72;;;16.70;99.90;;;;;;4934285;29;20209;-61
2023/10/02 03:27:08;;;;;;;8.65;4.13;;;16.70;99.90;;;;;;4950311;29;20055;-61
2023/10/02 03:29:34;;;;;;;14.45;5.55;;;16.70;99.90;;;;;;4951732;28;20047;-61
2023/10/02 03:32:01;;;;;;;11.73;5.43;;;16.70;99.90;;;;;;4951079;28;20173;-62
2023/10/02 03:34:30;;;;;;;12.20;4.30;;;16.70;99.90;;;;;;4950343;29;20039;-61
2023/10/02 03:37:00;;;;;;;14.95;5.25;;;16.60;99.90;;;;;;4949423;29;20043;-61
2023/10/02 03:42:14;;;;;;;14.20;5.38;;;16.60;99.90;;;;;;4950374;28;20063;-62
2023/10/02 03:44:42;;;;;;;11.93;5.38;;;16.60;99.90;;;;;;4949950;29;20403;-61
2023/10/02 03:47:12;;;;;;;16.17;6.28;;;16.50;99.90;;;;;;4951403;28;20050;-62
2023/10/02 03:49:42;;;;;;;13.32;5.07;;;16.50;99.90;;;;;;4950056;29;20100;-61
2023/10/02 03:52:08;;;;;;;16.52;4.80;;;16.50;99.90;;;;;;4949696;29;20105;-62
2023/10/02 03:54:34;;;;;;;9.95;4.90;;;16.40;99.90;;;;;;4933727;29;20047;-63
2023/10/02 03:57:01;;;;;;;14.68;5.82;;;16.50;99.90;;;;;;4950387;28;20197;-62
2023/10/02 03:59:31;;;;;;;14.05;5.13;;;16.40;99.90;;;;;;4949560;29;20050;-62
2023/10/02 04:02:45;;;;;;;16.58;4.55;;;16.40;99.90;;;;;;4951249;28;20043;-61
2023/10/02 04:04:48;;;;;;;8.65;4.45;;;16.30;99.90;;;;;;4943223;29;20554;-61
2023/10/02 04:07:14;;;;;;;14.52;5.38;;;16.30;99.90;;;;;;4949874;28;20059;-61
2023/10/02 04:09:41;;;;;;;13.55;4.93;;;16.30;99.90;;;;;;4951289;28;20414;-61
2023/10/02 04:12:07;;;;;;;13.43;4.78;;;16.20;99.90;;;;;;4933521;29;20090;-61
2023/10/02 04:14:33;;;;;;;11.95;4.35;;;16.20;99.90;;;;;;4949807;29;20043;-61
2023/10/02 04:19:58;;;;;;;16.13;5.32;;;16.10;99.90;;;;;;4950201;28;20122;-62
2023/10/02 04:22:25;;;;;;;15.13;5.22;;;16.10;99.90;;;;;;4948288;28;20050;-61
2023/10/02 04:25:04;;;;;;;10.38;4.75;;;16.00;99.90;;;;;;5017400;28;20404;-61
2023/10/02 04:32:36;;;;;;;17.08;5.82;;;16.10;99.90;;;;;;4949816;29;20051;-61
2023/10/02 04:35:03;;;;;;;17.23;5.68;;;16.10;99.90;;;;;;4950122;28;20613;-61
2023/10/02 04:37:32;;;;;;;13.93;5.97;;;16.10;99.90;;;;;;4950777;28;20491;-61
2023/10/02 04:45:20;;;;;;;12.43;6.35;;;16.10;99.90;;;;;;4950471;28;20110;-61
2023/10/02 04:47:48;;;;;;;12.70;5.05;;;16.10;99.90;;;;;;4948723;29;20039;-61
2023/10/02 04:52:55;;;;;;;14.10;4.65;;;16.10;99.90;;;;;;4948908;28;20688;-61
2023/10/02 04:55:27;;;;;;;11.75;4.40;;;16.00;99.90;;;;;;4948592;29;20518;-61
2023/10/02 04:58:04;;;;;;;12.20;4.47;;;16.00;99.90;;;;;;4948993;29;20082;-61
2023/10/02 05:00:33;;;;;;;15.70;5.30;;;15.90;99.90;;;;;;4949110;29;20128;-62
2023/10/02 05:03:09;;;;;;;15.57;5.50;;;15.90;99.90;;;;;;4932777;28;20495;-61
2023/10/02 05:05:42;;;;;;;11.05;5.32;;;15.80;99.90;;;;;;4950297;28;20130;-62
2023/10/02 05:08:18;;;;;;;16.27;4.88;;;15.80;99.90;;;;;;4948445;29;20051;-61
2023/10/02 05:10:47;;;;;;;13.00;5.13;;;15.70;99.90;;;;;;4948907;29;20043;-62
2023/10/02 05:13:14;;;;;;;16.02;5.63;;;15.70;99.90;;;;;;4950156;28;20042;-61
2023/10/02 05:16:06;;;;;;;13.18;4.55;;;15.70;99.90;;;;;;4949772;28;20181;-61
2023/10/02 05:18:33;;;;;;;13.60;4.47;;;15.60;99.90;;;;;;4949062;28;20051;-61
2023/10/02 05:21:01;;;;;;;13.52;4.72;;;15.60;99.90;;;;;;4948927;29;20064;-61
2023/10/02 05:23:31;;;;;;;10.73;4.57;;;15.50;99.90;;;;;;4947304;29;20430;-61
2023/10/02 05:26:04;;;;;;;10.88;4.22;;;15.50;99.90;;;;;;4949575;28;20054;-61
2023/10/02 05:28:42;;;;;;;10.85;5.05;;;15.50;99.90;;;;;;4950072;28;20122;-61
2023/10/02 05:31:15;;;;;;;10.65;5.07;;;15.50;99.90;;;;;;4932168;29;20048;-61
2023/10/02 05:33:41;;;;;;;9.20;4.03;;;15.40;99.90;;;;;;4949104;28;20065;-61
2023/10/02 05:36:10;;;;;;;10.55;4.70;;;15.50;99.90;;;;;;4948092;29;20047;-61
2023/10/02 05:38:38;;;;;;;17.33;4.95;;;15.50;99.90;;;;;;4949804;28;20043;-61
2023/10/02 05:41:12;;;;;;;14.93;4.47;;;15.50;99.90;;;;;;4948252;29;20051;-61
2023/10/02 05:43:55;;;;;;;12.05;4.20;;;15.50;99.90;;;;;;4948006;29;20081;-60
2023/10/02 05:46:22;;;;;;;11.35;4.80;;;15.50;99.90;;;;;;4949657;28;20055;-60
2023/10/02 05:49:00;;;;;;;10.68;4.80;;;15.60;99.90;;;;;;4948595;29;20039;-60
2023/10/02 05:51:45;;;;;;;9.80;4.57;;;15.60;99.90;;;;;;4949129;28;20340;-59
2023/10/02 05:54:11;;;;;;;11.98;4.85;;;15.60;99.90;;;;;;4947967;29;20097;-59
2023/10/02 05:56:36;;;;;;;16.92;5.78;;;15.60;99.90;;;;;;4948447;29;20039;-59
2023/10/02 05:59:02;;;;;;;13.52;5.00;;;15.60;99.90;;;;;;4947816;29;20476;-59
2023/10/02 06:01:34;;;;;;;14.68;4.05;;;15.60;99.90;;;;;;4948606;28;20185;-59
2023/10/02 06:04:04;;;;;;;10.60;4.82;;;15.60;99.90;;;;;;4947666;29;20118;-59
2023/10/02 06:06:37;;;;;;;17.33;5.47;;;15.50;99.90;;;;;;4949540;28;20426;-59
2023/10/02 06:09:12;;;;;;;11.20;4.15;;;15.60;99.90;;;;;;4957436;28;20043;-59
2023/10/02 06:14:24;;;;;;;8.60;4.28;;;15.60;99.90;;;;;;4967648;28;20049;-58
2023/10/02 06:16:52;;;;;;;9.43;3.65;;;15.60;99.90;;;;;;4967062;28;20055;-59
2023/10/02 06:19:18;;;;;;;13.30;5.95;;;15.60;99.90;;;;;;4966810;28;20491;-59
2023/10/02 06:21:47;;;;;;;13.93;4.80;;;15.60;99.90;;;;;;4948515;28;20161;-59
2023/10/02 06:24:17;;;;;;;13.88;6.57;;;15.60;99.90;;;;;;4949450;28;20047;-59
2023/10/02 06:26:58;;;;;;;7.85;3.88;;;15.70;99.90;;;;;;4927302;29;20048;-59
2023/10/02 06:29:29;;;;;;;11.43;4.32;;;15.60;99.90;;;;;;4928811;29;20050;-58
2023/10/02 06:32:01;;;;;;;11.23;4.88;;;15.70;99.90;;;;;;5011634;28;20059;-59
2023/10/02 06:34:36;;;;;;;12.85;4.65;;;15.70;99.90;;;;;;4930349;28;20372;-59
2023/10/02 06:37:16;;;;;;;14.15;4.88;;;15.60;99.90;;;;;;4929374;29;20050;-59
2023/10/02 06:40:02;;;;;;;15.20;5.00;;;15.70;99.90;;;;;;4928542;29;20070;-58
2023/10/02 06:42:28;;;;;;;13.27;4.70;;;15.70;99.90;;;;;;4929880;28;20075;-59
2023/10/02 06:44:54;;;;;;;12.10;4.95;;;15.70;99.90;;;;;;4930378;29;20056;-59
2023/10/02 06:47:28;;;;;;;9.80;4.13;;;15.80;99.90;;;;;;4932574;29;20044;-59
2023/10/02 06:50:02;;;;;;;13.15;5.03;;;15.90;99.90;;;;;;4937146;29;20047;-59
2023/10/02 06:52:32;;;;;;;14.85;5.10;;;15.90;99.90;;;;;;4952348;28;20097;-59
2023/10/02 06:55:00;;;;;;;13.90;4.55;;;15.90;99.90;;;;;;4950312;28;20080;-58
2023/10/02 06:57:26;;;;;;;16.38;6.07;;;16.00;99.90;;;;;;4950651;29;20051;-59
2023/10/02 06:59:52;;;;;;;15.55;5.60;;;16.00;99.90;;;;;;4951757;28;20487;-59
2023/10/02 07:02:26;;;;;;;13.80;6.07;;;16.00;99.90;;;;;;4950927;29;20047;-59
2023/10/02 07:04:56;;;;;;;17.38;6.65;;;16.00;99.90;;;;;;4950642;28;20043;-60
2023/10/02 07:07:26;;;;;;;;;;;16.00;99.90;;;;;;4950588;29;20055;-59
2023/10/02 07:10:02;;;;;;;;;;;16.10;99.90;;;;;;4951300;29;19928;-59
2023/10/02 07:12:32;;;;;;;12.70;5.05;;;16.10;99.90;;;;;;4952154;28;19953;-59
2023/10/02 07:15:10;;;;;;;14.20;5.93;;;16.10;99.90;;;;;;4934243;29;20047;-59
2023/10/02 07:17:47;;;;;;;12.90;5.70;;;16.10;99.90;;;;;;4950792;29;20406;-59
2023/10/02 07:20:18;;;;;;;12.65;5.30;;;16.20;99.90;;;;;;4950566;29;20487;-58
2023/10/02 07:22:44;;;;;;;16.33;6.07;;;16.20;99.90;;;;;;4950018;29;20047;-59
2023/10/02 07:25:10;;;;;;;14.15;5.72;;;16.30;99.90;;;;;;4950651;29;20043;-59
2023/10/02 07:27:37;;;;;;;21.48;7.90;;;16.40;99.90;;;;;;4950710;29;20548;-59
2023/10/02 07:30:04;;;;;;;16.95;7.30;;;16.60;99.90;;;;;;4948756;29;20043;-59
2023/10/02 07:32:34;;;;;;;19.27;8.25;;;16.70;99.90;;;;;;4934336;29;20047;-59
2023/10/02 07:35:09;;;;;;;21.10;8.63;;;16.80;99.90;;;;;;4950002;29;20511;-59
2023/10/02 07:37:36;;;;;;;23.40;9.73;;;16.90;99.90;;;;;;4951523;28;20615;-59
2023/10/02 07:40:06;;;;;;;30.90;10.35;;;17.00;99.90;;;;;;4950300;28;20047;-60
2023/10/02 07:42:32;;;;;;;;;;;17.20;99.90;;;;;;4933800;29;20055;-59
2023/10/02 07:45:11;;;;;;;28.35;10.50;;;17.30;99.90;;;;;;4950286;29;20370;-59
2023/10/02 07:47:39;;;;;;;23.60;10.00;;;17.40;99.90;;;;;;4951965;28;20529;-59
2023/10/02 07:50:23;;;;;;;27.20;11.60;;;17.50;99.90;;;;;;4950718;28;20044;-60
2023/10/02 07:52:49;;;;;;;37.22;12.88;;;17.60;99.90;;;;;;4951143;28;20036;-59
2023/10/02 07:55:15;;;;;;;32.72;11.95;;;17.80;99.90;;;;;;4951384;29;20035;-59
2023/10/02 07:57:41;;;;;;;36.45;13.50;;;17.90;99.90;;;;;;4948517;28;20054;-60
2023/10/02 08:00:52;;;;;;;37.58;13.38;;;18.00;99.90;;;;;;4949794;29;20047;-60
2023/10/02 08:03:36;;;;;;;31.25;12.20;;;18.20;99.90;;;;;;4945512;29;20046;-59
2023/10/02 08:11:41;;;;;;;37.00;14.13;;;18.70;99.90;;;;;;4949425;28;20089;-60
2023/10/02 08:14:54;;;;;;;32.10;12.10;;;19.10;99.90;;;;;;4951213;28;20405;-60
2023/10/02 08:16:59;;;;;;;27.83;11.27;;;19.50;99.90;;;;;;4954523;28;20046;-60
2023/10/02 08:19:25;;;;;;;26.95;11.13;;;20.00;99.90;;;;;;4949549;29;20462;-60
2023/10/02 08:21:53;;;;;;;25.27;10.20;;;20.30;99.90;;;;;;4950943;28;20047;-60
2023/10/02 08:24:20;;;;;;;24.48;8.40;;;20.40;99.90;;;;;;4949422;28;20175;-60
2023/10/02 08:26:47;;;;;;;21.45;6.22;;;20.40;99.90;;;;;;4949523;29;20079;-61
2023/10/02 08:29:14;;;;;;;18.90;7.25;;;20.30;99.90;;;;;;4949470;29;20054;-63
2023/10/02 08:31:47;;;;;;;21.10;7.07;;;20.50;99.90;;;;;;4947131;29;20070;-61
2023/10/02 08:34:19;;;;;;;16.08;6.03;;;20.60;99.90;;;;;;4948347;29;20043;-61
2023/10/02 08:37:04;;;;;;;17.35;5.78;;;20.70;99.90;;;;;;4948836;29;20519;-61
2023/10/02 08:39:33;;;;;;;16.45;5.97;;;20.80;99.90;;;;;;4948355;29;20087;-62
2023/10/02 08:42:08;;;;;;;15.48;4.85;;;21.00;99.90;;;;;;4948530;29;20510;-61
2023/10/02 08:44:38;;;;;;;16.35;5.50;;;21.10;99.90;;;;;;4948909;29;20047;-61
2023/10/02 08:47:12;;;;;;;18.75;6.60;;;21.20;99.90;;;;;;4948059;29;20058;-61
2023/10/02 08:49:41;;;;;;;15.07;5.00;;;21.40;99.90;;;;;;4948759;29;20540;-61
2023/10/02 08:52:13;;;;;;;13.93;4.68;;;21.40;99.90;;;;;;4948057;29;20096;-61
2023/10/02 08:54:41;;;;;;;18.83;6.55;;;21.40;99.90;;;;;;4932573;28;20047;-61
2023/10/02 08:57:12;;;;;;;13.85;5.68;;;21.20;99.90;;;;;;4948966;29;20047;-61
2023/10/02 08:59:38;;;;;;;13.48;5.80;;;21.40;99.90;;;;;;4947162;29;20173;-61
2023/10/02 09:02:16;;;;;;;11.88;5.40;;;21.70;99.90;;;;;;4948933;28;20490;-61
2023/10/02 09:04:55;;;;;;;14.50;5.38;;;21.90;99.90;;;;;;4950301;28;20418;-61
2023/10/02 09:07:23;;;;;;;17.65;6.95;;;22.00;99.90;;;;;;4932531;28;20534;-61
2023/10/02 09:10:12;;;;;;;16.45;6.68;;;22.00;99.90;;;;;;4948004;28;20043;-61
2023/10/02 09:12:48;;;;;;;12.10;4.88;;;22.00;99.90;;;;;;4949273;29;20127;-61
2023/10/02 09:15:26;;;;;;;15.68;5.82;;;22.00;99.90;;;;;;4950267;28;20039;-61
2023/10/02 09:17:57;;;;;;;14.45;6.00;;;22.00;99.90;;;;;;4948901;29;20122;-61
2023/10/02 09:20:38;;;;;;;11.35;5.72;;;22.00;99.90;;;;;;4949505;28;20075;-61
2023/10/02 09:23:08;;;;;;;19.27;6.60;;;21.90;99.90;;;;;;4950096;28;20122;-61
2023/10/02 09:25:37;;;;;;;12.95;5.70;;;21.60;99.90;;;;;;4948434;29;20120;-61
2023/10/02 09:28:09;;;;;;;14.85;6.10;;;21.40;99.90;;;;;;4948181;28;20432;-61
2023/10/02 09:30:41;;;;;;;22.00;8.30;;;21.20;99.90;;;;;;4948643;29;20066;-61
2023/10/02 09:33:22;;;;;;;13.18;5.97;;;21.10;99.90;;;;;;4948943;29;20051;-61
2023/10/02 09:35:52;;;;;;;15.02;7.03;;;20.90;99.90;;;;;;4948297;28;20051;-61
2023/10/02 09:38:22;;;;;;;17.35;6.43;;;20.80;99.90;;;;;;4948467;29;20051;-61
2023/10/02 09:41:01;;;;;;;14.73;5.20;;;20.70;99.90;;;;;;4948060;29;20112;-61
2023/10/02 09:43:30;;;;;;;21.60;7.28;;;20.60;99.90;;;;;;4950107;28;20426;-61
2023/10/02 09:46:06;;;;;;;19.42;6.60;;;20.60;99.90;;;;;;4948446;29;20516;-61
2023/10/02 09:48:46;;;;;;;15.82;6.47;;;20.80;99.90;;;;;;4928246;29;20052;-61
2023/10/02 09:51:29;;;;;;;17.65;5.45;;;20.80;99.90;;;;;;4930399;29;20422;-61
2023/10/02 09:54:13;;;;;;;22.85;7.45;;;20.80;99.90;;;;;;4941291;29;20419;-61
2023/10/02 09:57:06;;;;;;;19.88;6.07;;;20.70;99.90;;;;;;4947092;29;20047;-61
2023/10/02 09:59:54;;;;;;;15.55;5.75;;;20.70;99.90;;;;;;4948380;29;20075;-61
2023/10/02 10:13:27;;;;;;;13.02;6.30;;;20.80;99.90;;;;;;4929258;28;20055;-61
2023/10/02 10:16:23;;;;;;;18.27;6.43;;;20.80;99.90;;;;;;4929542;29;20048;-61
2023/10/02 10:24:58;;;;;;;15.18;6.28;;;20.50;99.90;;;;;;4952355;28;20043;-61
2023/10/02 10:27:41;;;;;;;16.05;5.70;;;20.50;99.90;;;;;;4951389;29;20043;-61
2023/10/02 10:33:27;;;;;;;21.25;6.43;;;20.60;99.90;;;;;;4952822;28;20048;-61
2023/10/02 10:35:58;;;;;;;18.45;6.50;;;20.60;99.90;;;;;;4951203;29;20054;-61
2023/10/02 10:38:36;;;;;;;18.35;7.45;;;20.70;99.90;;;;;;4950536;28;20097;-61
2023/10/02 10:41:09;;;;;;;17.42;7.53;;;20.80;99.90;;;;;;4950736;29;20045;-61
2023/10/02 10:43:44;;;;;;;18.50;7.68;;;20.90;99.90;;;;;;4951301;29;20055;-61
2023/10/02 10:46:48;;;;;;;16.67;6.47;;;21.10;99.90;;;;;;4950500;29;20475;-61
2023/10/02 10:49:23;;;;;;;18.15;7.40;;;21.40;99.90;;;;;;4954133;28;20130;-61
2023/10/02 10:51:52;;;;;;;13.98;6.30;;;21.50;99.90;;;;;;4950753;29;20559;-61
2023/10/02 10:54:25;;;;;;;15.80;6.70;;;21.50;99.90;;;;;;4951570;28;20566;-61
2023/10/02 10:57:19;;;;;;;17.23;6.78;;;21.50;99.90;;;;;;4950002;29;20055;-61
2023/10/02 10:59:47;;;;;;;16.33;5.80;;;21.40;99.90;;;;;;4949808;29;20124;-61
2023/10/02 11:02:15;;;;;;;16.55;6.80;;;21.40;99.90;;;;;;4950162;29;20051;-61
2023/10/02 11:04:47;;;;;;;17.92;7.63;;;21.50;99.90;;;;;;4950075;29;20051;-61
2023/10/02 11:07:23;;;;;;;19.85;8.15;;;21.60;99.90;;;;;;4933966;29;20048;-61
2023/10/02 11:12:57;;;;;;;16.55;7.57;;;22.00;99.90;;;;;;4948947;28;20097;-61
2023/10/02 11:18:26;;;;;;;17.77;8.35;;;22.30;99.90;;;;;;4931883;28;20066;-61
2023/10/02 11:20:54;;;;;;;21.50;8.07;;;22.30;99.90;;;;;;4932181;29;20055;-61
2023/10/02 11:23:44;;;;;;;22.35;9.90;;;22.20;99.90;;;;;;4932691;29;20647;-61
2023/10/02 11:26:12;;;;;;;15.23;7.10;;;22.30;99.90;;;;;;4932149;28;20048;-61
2023/10/02 11:28:41;;;;;;;22.65;8.48;;;22.40;99.90;;;;;;4931740;28;20127;-61
2023/10/02 11:31:32;;;;;;;22.33;8.85;;;22.30;99.90;;;;;;4930989;28;20058;-61
2023/10/02 11:34:11;;;;;;;22.10;7.88;;;22.30;99.90;;;;;;4933709;29;20035;-61
2023/10/02 11:36:50;;;;;;;20.33;7.85;;;22.60;99.90;;;;;;4950480;29;20047;-61
2023/10/02 11:39:26;;;;;;;18.50;8.50;;;23.00;99.90;;;;;;4950498;29;20047;-61
2023/10/02 11:41:54;;;;;;;18.60;7.18;;;23.30;99.90;;;;;;4948591;29;20151;-61
2023/10/02 11:44:19;;;;;;;15.52;7.40;;;23.40;99.90;;;;;;4950112;29;20587;-61
2023/10/02 11:46:46;;;;;;;19.40;8.82;;;23.30;99.90;;;;;;4962310;28;20051;-61
2023/10/02 11:49:12;;;;;;;21.88;8.77;;;23.10;99.90;;;;;;4970260;28;20045;-61
2023/10/02 11:51:39;;;;;;;18.52;8.20;;;23.10;99.90;;;;;;4953222;28;20478;-61
2023/10/02 11:54:13;;;;;;;21.25;8.57;;;23.10;99.90;;;;;;4957870;28;20043;-61
2023/10/02 11:56:39;;;;;;;20.77;8.93;;;23.00;99.90;;;;;;4951206;28;20079;-61
2023/10/02 11:59:07;;;;;;;16.77;7.97;;;22.80;99.90;;;;;;4934241;28;20071;-61
2023/10/02 12:01:33;;;;;;;17.25;7.88;;;22.70;99.90;;;;;;4950812;28;20047;-59
2023/10/02 12:03:58;;;;;;;13.43;6.22;;;22.70;99.90;;;;;;4949819;29;20124;-59
2023/10/02 12:06:25;;;;;;;19.55;7.55;;;22.60;99.90;;;;;;4949686;29;20097;-59
2023/10/02 12:08:52;;;;;;;14.55;6.97;;;22.60;99.90;;;;;;4949428;29;20043;-60
2023/10/02 12:11:17;;;;;;;15.10;6.07;;;22.70;99.90;;;;;;4949985;29;20375;-59
2023/10/02 12:13:44;;;;;;;16.58;7.13;;;22.80;99.90;;;;;;4951204;28;20043;-59
2023/10/02 12:16:13;;;;;;;15.68;7.00;;;22.80;99.90;;;;;;4950459;28;20384;-60
2023/10/02 12:18:42;;;;;;;18.42;7.40;;;22.80;99.90;;;;;;4933350;29;20130;-59
2023/10/02 12:21:10;;;;;;;18.95;8.02;;;22.70;99.90;;;;;;4949725;29;20097;-59
2023/10/02 12:23:40;;;;;;;16.92;6.47;;;22.50;99.90;;;;;;4949353;29;20057;-60
2023/10/02 12:26:09;;;;;;;17.92;7.15;;;22.40;99.90;;;;;;4949090;29;20047;-59
2023/10/02 12:28:38;;;;;;;15.13;6.80;;;22.30;99.90;;;;;;4949971;28;20442;-59
2023/10/02 12:31:14;;;;;;;17.80;6.43;;;22.20;99.90;;;;;;4949245;28;20561;-59
2023/10/02 12:33:43;;;;;;;16.95;6.57;;;22.10;99.90;;;;;;4948781;29;20039;-59
2023/10/02 12:36:23;;;;;;;19.10;7.28;;;22.00;99.90;;;;;;4949153;28;20375;-59
2023/10/02 12:38:50;;;;;;;16.92;7.25;;;21.90;99.90;;;;;;4948743;29;20047;-60
2023/10/02 12:41:28;;;;;;;12.70;6.53;;;21.70;99.90;;;;;;4948189;29;20051;-60
2023/10/02 12:43:56;;;;;;;12.50;5.43;;;21.70;99.90;;;;;;4930962;29;20105;-60
2023/10/02 12:46:26;;;;;;;17.55;7.82;;;21.60;99.90;;;;;;4949242;28;20044;-59
2023/10/02 12:48:55;;;;;;;14.57;6.60;;;21.60;99.90;;;;;;4948474;29;20123;-59
2023/10/02 12:51:22;;;;;;;15.07;7.18;;;21.60;99.90;;;;;;4947986;29;20051;-59
2023/10/02 12:53:49;;;;;;;12.60;5.75;;;21.60;99.90;;;;;;4948176;29;20451;-59
2023/10/02 12:56:24;;;;;;;17.13;6.72;;;21.70;99.90;;;;;;4948135;29;20487;-59
2023/10/02 12:58:51;;;;;;;16.60;6.28;;;21.80;99.90;;;;;;4931775;29;20130;-59
2023/10/02 13:01:19;;;;;;;17.85;6.93;;;21.80;99.90;;;;;;4949438;28;20443;-59
2023/10/02 13:03:46;;;;;;;14.73;5.82;;;21.80;99.90;;;;;;4948327;28;20073;-59
2023/10/02 13:06:13;;;;;;;14.85;6.25;;;21.90;99.90;;;;;;4948845;28;20495;-59
2023/10/02 13:08:41;;;;;;;14.07;6.18;;;21.90;99.90;;;;;;4949136;28;20036;-59
2023/10/02 13:11:12;;;;;;;14.25;6.40;;;22.00;99.90;;;;;;4948775;28;20043;-59
2023/10/02 13:13:42;;;;;;;21.75;7.45;;;22.00;99.90;;;;;;4949328;28;20475;-59
2023/10/02 13:16:08;;;;;;;13.93;5.43;;;22.10;99.90;;;;;;4931978;29;20693;-59
2023/10/02 13:18:35;;;;;;;18.50;6.75;;;22.20;99.90;;;;;;4947237;29;20109;-59
2023/10/02 13:21:02;;;;;;;13.00;5.55;;;22.30;99.90;;;;;;4947931;29;20051;-59
2023/10/02 13:23:28;;;;;;;15.25;6.80;;;22.30;99.90;;;;;;4932076;29;20126;-59
2023/10/02 13:25:54;;;;;;;13.27;5.90;;;22.30;99.90;;;;;;4947315;29;20057;-59
2023/10/02 13:28:21;;;;;;;13.30;5.97;;;22.30;99.90;;;;;;4947898;29;20047;-60
2023/10/02 13:30:47;;;;;;;17.55;6.20;;;22.30;99.90;;;;;;4947696;29;20710;-59
2023/10/02 13:33:12;;;;;;;10.27;5.13;;;22.30;99.90;;;;;;4931363;28;20073;-59
2023/10/02 13:35:39;;;;;;;12.90;5.13;;;22.30;99.90;;;;;;4931706;28;20104;-59
2023/10/02 13:38:07;;;;;;;14.30;4.93;;;22.30;99.90;;;;;;4947656;29;20105;-59
2023/10/02 13:40:36;;;;;;;10.25;5.22;;;22.30;99.90;;;;;;4948307;28;20054;-59
2023/10/02 13:43:03;;;;;;;13.07;5.47;;;22.30;99.90;;;;;;4947429;29;20146;-59
2023/10/02 13:45:29;;;;;;;10.32;4.50;;;22.40;99.90;;;;;;4948766;28;20047;-61
2023/10/02 13:47:56;;;;;;;14.35;4.72;;;22.30;99.90;;;;;;4946426;29;20051;-61
2023/10/02 13:50:22;;;;;;;13.77;5.15;;;22.30;99.90;;;;;;4947432;29;20567;-61
2023/10/02 13:52:53;;;;;;;16.13;6.18;;;22.20;99.90;;;;;;4928786;28;20130;-59
2023/10/02 13:55:19;;;;;;;11.70;5.22;;;22.30;99.90;;;;;;4928970;29;20043;-59
2023/10/02 13:57:52;;;;;;;13.15;5.30;;;22.20;99.90;;;;;;4929643;29;20652;-61
2023/10/02 14:00:21;;;;;;;17.33;5.13;;;22.30;99.90;;;;;;4927790;29;20065;-61
2023/10/02 14:02:49;;;;;;;9.68;5.00;;;22.30;99.90;;;;;;4912280;29;20113;-61